Impacts TAF Board
For situational awareness. Not to be used for flight planning purposes.
IDs:

KIAD - Washington/Dulles In, VA, US

Issued at 1502 UTC 24 Sep 2018
Updated at 1659 UTC 24 Sep 2018
Potential Impact None Slight Moderate High
Time1652Z 24/17Z 24/18Z 24/19Z 24/20Z 24/21Z 24/22Z 24/23Z 25/00Z 25/01Z 25/02Z 25/03Z 25/04Z 25/05Z>>
Type OBS PRVL PRVL PRVL PRVL PRVL PRVL PRVL PRVL PRVL PRVL PRVL PRVL PRVL
VIS 10 5 5 5 5 5 5 5 5 5 5 5 5 5
CIG 9 8 8 8 8 8 8 8 8 8 8 8 8 8
Cover OVC OVC OVC OVC OVC OVC OVC OVC OVC OVC OVC OVC OVC OVC
FltCat IFR IFR IFR IFR IFR IFR IFR IFR IFR IFR IFR IFR IFR IFR
WX -- -RA -RA -RA -RA -RA -RA -RA -RA -RA -RA -RA -RA -RA
WDir 90 80 80 80 80 80 80 80 80 80 80 80 80 80
WSpd 8 10 10 10 10 10 10 10 10 10 10 10 10 10
WGst -- -- -- -- -- -- -- -- -- -- -- -- -- --
Raw TAF
KIAD 241502Z 2415/2518 08010KT 5SM -RA OVC008
  FM250600 10007KT 5SM -DZ OVC008
  FM251700 18006KT P6SM OVC015


Raw METAR
KIAD 241652Z 09008KT 10SM OVC009 18/17 A3035 RMK AO2 SLP276 T01830172
KIAD 241552Z 07010KT 10SM BKN009 18/17 A3035 RMK AO2 RAE43 SLP276 P0000 T01780172
KIAD 241452Z 08008KT 8SM -RA BKN009 OVC012 18/17 A3035 RMK AO2 SLP277 P0003 60005 T01780172 51014
KIAD 241352Z 08007KT 10SM -RA OVC008 17/17 A3035 RMK AO2 CIG 006V013 SLP275 P0001 T01720172

METAR Board
Radar Display
Forecast Discussion
For situational awareness. Not to be used for flight planning purposes.